sensor_id;sensor_type;location;lat;lon;timestamp;pressure;altitude;pressure_sealevel;temperature;humidity
70053;BME280;57398;52.032;4.376;2023-07-20T00:00:20;102649.16;;;14.67;nan
70053;BME280;57398;52.032;4.376;2023-07-20T00:03:12;102665.47;;;14.62;nan
70053;BME280;57398;52.032;4.376;2023-07-20T00:06:03;102661.44;;;14.60;nan
70053;BME280;57398;52.032;4.376;2023-07-20T00:08:52;102670.50;;;14.57;nan
70053;BME280;57398;52.032;4.376;2023-07-20T00:11:48;102675.28;;;14.54;nan
70053;BME280;57398;52.032;4.376;2023-07-20T00:14:36;102666.63;;;14.53;nan
70053;BME280;57398;52.032;4.376;2023-07-20T00:17:26;102661.81;;;14.50;nan
70053;BME280;57398;52.032;4.376;2023-07-20T00:20:14;102669.22;;;14.46;nan
70053;BME280;57398;52.032;4.376;2023-07-20T00:25:51;102676.06;;;14.41;nan
70053;BME280;57398;52.032;4.376;2023-07-20T00:28:39;102674.44;;;14.40;nan
70053;BME280;57398;52.032;4.376;2023-07-20T00:31:27;102681.28;;;14.34;nan
70053;BME280;57398;52.032;4.376;2023-07-20T00:34:17;102674.44;;;14.33;nan
70053;BME280;57398;52.032;4.376;2023-07-20T00:37:06;102682.88;;;14.29;nan
70053;BME280;57398;52.032;4.376;2023-07-20T00:39:54;102688.53;;;14.32;nan
70053;BME280;57398;52.032;4.376;2023-07-20T00:42:43;102676.00;;;14.14;nan
70053;BME280;57398;52.032;4.376;2023-07-20T00:45:33;102669.56;;;14.17;nan
70053;BME280;57398;52.032;4.376;2023-07-20T00:48:21;102662.50;;;14.11;nan
70053;BME280;57398;52.032;4.376;2023-07-20T00:53:59;102685.22;;;14.10;nan
70053;BME280;57398;52.032;4.376;2023-07-20T00:56:47;102702.50;;;14.04;nan
70053;BME280;57398;52.032;4.376;2023-07-20T00:59:37;102692.66;;;14.00;nan
70053;BME280;57398;52.032;4.376;2023-07-20T01:02:25;102710.47;;;13.90;nan
70053;BME280;57398;52.032;4.376;2023-07-20T01:05:13;102704.28;;;13.91;nan
70053;BME280;57398;52.032;4.376;2023-07-20T01:08:08;102702.25;;;13.86;nan
70053;BME280;57398;52.032;4.376;2023-07-20T01:11:05;102716.69;;;13.82;nan
70053;BME280;57398;52.032;4.376;2023-07-20T01:13:55;102764.47;;;13.76;nan
70053;BME280;57398;52.032;4.376;2023-07-20T01:16:43;102701.56;;;13.71;nan
70053;BME280;57398;52.032;4.376;2023-07-20T01:19:32;102697.31;;;13.70;nan
70053;BME280;57398;52.032;4.376;2023-07-20T01:22:36;102720.44;;;13.73;nan
70053;BME280;57398;52.032;4.376;2023-07-20T01:25:40;102719.84;;;13.71;nan
70053;BME280;57398;52.032;4.376;2023-07-20T01:28:50;102729.69;;;13.75;nan
70053;BME280;57398;52.032;4.376;2023-07-20T01:31:47;102730.09;;;13.72;nan
70053;BME280;57398;52.032;4.376;2023-07-20T01:34:40;102741.97;;;13.75;nan
70053;BME280;57398;52.032;4.376;2023-07-20T01:37:30;102743.19;;;13.79;nan
70053;BME280;57398;52.032;4.376;2023-07-20T01:40:19;102744.78;;;13.80;nan
70053;BME280;57398;52.032;4.376;2023-07-20T01:43:09;102750.81;;;13.80;nan
70053;BME280;57398;52.032;4.376;2023-07-20T01:45:57;102747.81;;;13.77;nan
70053;BME280;57398;52.032;4.376;2023-07-20T01:48:47;102749.84;;;13.81;nan
70053;BME280;57398;52.032;4.376;2023-07-20T01:51:35;102750.28;;;13.92;nan
70053;BME280;57398;52.032;4.376;2023-07-20T01:54:24;102775.03;;;13.96;nan
70053;BME280;57398;52.032;4.376;2023-07-20T01:57:12;102779.28;;;14.03;nan
70053;BME280;57398;52.032;4.376;2023-07-20T02:00:01;102777.47;;;14.04;nan
70053;BME280;57398;52.032;4.376;2023-07-20T02:02:50;102795.78;;;14.11;nan
70053;BME280;57398;52.032;4.376;2023-07-20T02:05:42;102778.13;;;14.13;nan
70053;BME280;57398;52.032;4.376;2023-07-20T02:08:30;102767.03;;;14.11;nan
70053;BME280;57398;52.032;4.376;2023-07-20T02:11:18;102754.38;;;14.08;nan
70053;BME280;57398;52.032;4.376;2023-07-20T02:14:06;102745.53;;;14.09;nan
70053;BME280;57398;52.032;4.376;2023-07-20T02:16:55;102742.06;;;14.01;nan
70053;BME280;57398;52.032;4.376;2023-07-20T02:19:46;102736.22;;;13.93;nan
70053;BME280;57398;52.032;4.376;2023-07-20T02:22:38;102716.69;;;13.82;nan
70053;BME280;57398;52.032;4.376;2023-07-20T02:25:27;102712.91;;;13.91;nan
70053;BME280;57398;52.032;4.376;2023-07-20T02:28:15;102725.78;;;13.93;nan
70053;BME280;57398;52.032;4.376;2023-07-20T02:31:03;102712.91;;;13.91;nan
70053;BME280;57398;52.032;4.376;2023-07-20T02:33:52;102710.09;;;13.93;nan
70053;BME280;57398;52.032;4.376;2023-07-20T02:36:40;102727.78;;;13.91;nan
70053;BME280;57398;52.032;4.376;2023-07-20T02:39:31;102707.47;;;13.86;nan
70053;BME280;57398;52.032;4.376;2023-07-20T02:42:19;102704.38;;;13.76;nan
70053;BME280;57398;52.032;4.376;2023-07-20T02:45:09;102709.81;;;13.74;nan
70053;BME280;57398;52.032;4.376;2023-07-20T02:47:58;102719.41;;;13.67;nan
70053;BME280;57398;52.032;4.376;2023-07-20T02:50:46;102715.34;;;13.58;nan
70053;BME280;57398;52.032;4.376;2023-07-20T02:53:34;102719.09;;;13.49;nan
70053;BME280;57398;52.032;4.376;2023-07-20T02:56:24;102722.28;;;13.44;nan
70053;BME280;57398;52.032;4.376;2023-07-20T02:59:12;102728.63;;;13.35;nan
70053;BME280;57398;52.032;4.376;2023-07-20T03:02:00;102723.81;;;13.32;nan
70053;BME280;57398;52.032;4.376;2023-07-20T03:04:48;102733.44;;;13.31;nan
70053;BME280;57398;52.032;4.376;2023-07-20T03:07:37;102740.19;;;13.26;nan
70053;BME280;57398;52.032;4.376;2023-07-20T03:10:25;102720.88;;;13.20;nan
70053;BME280;57398;52.032;4.376;2023-07-20T03:13:15;102727.66;;;13.14;nan
70053;BME280;57398;52.032;4.376;2023-07-20T03:16:03;102732.88;;;13.14;nan
70053;BME280;57398;52.032;4.376;2023-07-20T03:18:52;102735.81;;;13.05;nan
70053;BME280;57398;52.032;4.376;2023-07-20T03:21:40;102723.31;;;13.00;nan
70053;BME280;57398;52.032;4.376;2023-07-20T03:27:17;102734.78;;;12.99;nan
70053;BME280;57398;52.032;4.376;2023-07-20T03:30:08;102749.59;;;12.98;nan
70053;BME280;57398;52.032;4.376;2023-07-20T03:32:56;102739.59;;;13.02;nan
70053;BME280;57398;52.032;4.376;2023-07-20T03:35:44;102736.81;;;13.04;nan
70053;BME280;57398;52.032;4.376;2023-07-20T03:38:33;102741.88;;;13.12;nan
70053;BME280;57398;52.032;4.376;2023-07-20T03:41:21;102762.13;;;13.10;nan
70053;BME280;57398;52.032;4.376;2023-07-20T03:46:58;102773.56;;;13.09;nan
70053;BME280;57398;52.032;4.376;2023-07-20T03:49:47;102767.75;;;13.07;nan
70053;BME280;57398;52.032;4.376;2023-07-20T03:52:35;102786.56;;;13.02;nan
70053;BME280;57398;52.032;4.376;2023-07-20T03:55:23;102766.88;;;12.99;nan
70053;BME280;57398;52.032;4.376;2023-07-20T03:58:11;102759.66;;;13.02;nan
70053;BME280;57398;52.032;4.376;2023-07-20T04:00:59;102760.09;;;13.05;nan
70053;BME280;57398;52.032;4.376;2023-07-20T04:03:49;102744.06;;;13.08;nan
70053;BME280;57398;52.032;4.376;2023-07-20T04:06:37;102753.31;;;13.11;nan
70053;BME280;57398;52.032;4.376;2023-07-20T04:09:26;102748.72;;;13.13;nan
70053;BME280;57398;52.032;4.376;2023-07-20T04:12:14;102764.38;;;13.13;nan
70053;BME280;57398;52.032;4.376;2023-07-20T04:15:02;102760.94;;;13.12;nan
70053;BME280;57398;52.032;4.376;2023-07-20T04:17:51;102767.41;;;13.16;nan
70053;BME280;57398;52.032;4.376;2023-07-20T04:20:40;102767.00;;;13.13;nan
70053;BME280;57398;52.032;4.376;2023-07-20T04:23:29;102783.13;;;13.23;nan
70053;BME280;57398;52.032;4.376;2023-07-20T04:26:17;102795.25;;;13.31;nan
70053;BME280;57398;52.032;4.376;2023-07-20T04:29:06;102821.63;;;13.36;nan
70053;BME280;57398;52.032;4.376;2023-07-20T04:31:54;102808.56;;;13.36;nan
70053;BME280;57398;52.032;4.376;2023-07-20T04:34:42;102822.66;;;13.41;nan
70053;BME280;57398;52.032;4.376;2023-07-20T04:37:31;102832.41;;;13.54;nan
70053;BME280;57398;52.032;4.376;2023-07-20T04:40:20;102860.63;;;13.66;nan
70053;BME280;57398;52.032;4.376;2023-07-20T04:43:08;102868.88;;;13.69;nan
70053;BME280;57398;52.032;4.376;2023-07-20T04:45:56;102892.16;;;13.64;nan
70053;BME280;57398;52.032;4.376;2023-07-20T04:48:45;102888.53;;;13.65;nan
70053;BME280;57398;52.032;4.376;2023-07-20T04:51:34;102884.13;;;13.66;nan
70053;BME280;57398;52.032;4.376;2023-07-20T04:54:24;102871.09;;;13.66;nan
70053;BME280;57398;52.032;4.376;2023-07-20T04:57:14;102865.47;;;13.69;nan
70053;BME280;57398;52.032;4.376;2023-07-20T05:00:02;102875.78;;;13.77;nan
70053;BME280;57398;52.032;4.376;2023-07-20T05:02:51;102887.09;;;13.84;nan
70053;BME280;57398;52.032;4.376;2023-07-20T05:05:40;102889.38;;;13.94;nan
70053;BME280;57398;52.032;4.376;2023-07-20T05:08:29;102934.63;;;14.01;nan
70053;BME280;57398;52.032;4.376;2023-07-20T05:11:18;102947.31;;;14.04;nan
70053;BME280;57398;52.032;4.376;2023-07-20T05:14:07;102932.97;;;14.21;nan
70053;BME280;57398;52.032;4.376;2023-07-20T05:16:55;102934.88;;;14.34;nan
70053;BME280;57398;52.032;4.376;2023-07-20T05:19:43;102935.50;;;14.43;nan
70053;BME280;57398;52.032;4.376;2023-07-20T05:22:31;102932.03;;;14.57;nan
70053;BME280;57398;52.032;4.376;2023-07-20T05:25:20;102906.72;;;14.64;nan
70053;BME280;57398;52.032;4.376;2023-07-20T05:28:11;102900.50;;;14.72;nan
70053;BME280;57398;52.032;4.376;2023-07-20T05:30:59;102879.56;;;14.72;nan
70053;BME280;57398;52.032;4.376;2023-07-20T05:33:50;102876.78;;;14.80;nan
70053;BME280;57398;52.032;4.376;2023-07-20T05:36:38;102870.13;;;14.78;nan
70053;BME280;57398;52.032;4.376;2023-07-20T05:42:14;102876.63;;;14.95;nan
70053;BME280;57398;52.032;4.376;2023-07-20T05:45:05;102857.94;;;15.05;nan
70053;BME280;57398;52.032;4.376;2023-07-20T05:50:42;102846.84;;;15.16;nan
70053;BME280;57398;52.032;4.376;2023-07-20T05:53:30;102846.06;;;15.22;nan
70053;BME280;57398;52.032;4.376;2023-07-20T05:56:19;102853.13;;;15.55;nan
70053;BME280;57398;52.032;4.376;2023-07-20T05:59:07;102864.41;;;15.69;nan
70053;BME280;57398;52.032;4.376;2023-07-20T06:01:57;102859.00;;;15.77;nan
70053;BME280;57398;52.032;4.376;2023-07-20T06:04:45;102859.16;;;15.96;nan
70053;BME280;57398;52.032;4.376;2023-07-20T06:07:34;102853.13;;;15.88;nan
70053;BME280;57398;52.032;4.376;2023-07-20T06:10:22;102844.25;;;15.96;nan
70053;BME280;57398;52.032;4.376;2023-07-20T06:13:10;102809.41;;;15.76;nan
70053;BME280;57398;52.032;4.376;2023-07-20T06:15:58;102774.69;;;15.94;nan
70053;BME280;57398;52.032;4.376;2023-07-20T06:18:48;102737.41;;;15.91;nan
70053;BME280;57398;52.032;4.376;2023-07-20T06:21:36;102706.97;;;15.90;nan
70053;BME280;57398;52.032;4.376;2023-07-20T06:24:25;102680.38;;;15.80;nan
70053;BME280;57398;52.032;4.376;2023-07-20T06:27:13;102657.97;;;15.91;nan
70053;BME280;57398;52.032;4.376;2023-07-20T06:30:02;102651.94;;;15.90;nan
70053;BME280;57398;52.032;4.376;2023-07-20T06:35:42;102656.81;;;16.19;nan
70053;BME280;57398;52.032;4.376;2023-07-20T06:38:31;102648.88;;;16.32;nan
70053;BME280;57398;52.032;4.376;2023-07-20T06:41:19;102649.53;;;16.52;nan
70053;BME280;57398;52.032;4.376;2023-07-20T06:44:11;102624.88;;;16.53;nan
70053;BME280;57398;52.032;4.376;2023-07-20T06:49:47;102632.09;;;16.90;nan
70053;BME280;57398;52.032;4.376;2023-07-20T06:52:37;102621.28;;;16.80;nan
70053;BME280;57398;52.032;4.376;2023-07-20T06:55:26;102622.31;;;16.97;nan
70053;BME280;57398;52.032;4.376;2023-07-20T07:01:05;102618.00;;;16.84;nan
70053;BME280;57398;52.032;4.376;2023-07-20T07:03:53;102622.75;;;16.94;nan
70053;BME280;57398;52.032;4.376;2023-07-20T07:06:42;102615.56;;;17.08;nan
70053;BME280;57398;52.032;4.376;2023-07-20T07:09:32;102615.19;;;17.04;nan
70053;BME280;57398;52.032;4.376;2023-07-20T07:12:20;102604.03;;;17.09;nan
70053;BME280;57398;52.032;4.376;2023-07-20T07:15:09;102619.22;;;17.25;nan
70053;BME280;57398;52.032;4.376;2023-07-20T07:17:58;102612.94;;;17.26;nan
70053;BME280;57398;52.032;4.376;2023-07-20T07:20:51;102610.22;;;16.96;nan
70053;BME280;57398;52.032;4.376;2023-07-20T07:23:40;102612.63;;;16.98;nan
70053;BME280;57398;52.032;4.376;2023-07-20T07:26:29;102625.38;;;16.94;nan
70053;BME280;57398;52.032;4.376;2023-07-20T07:29:17;102607.81;;;16.69;nan
70053;BME280;57398;52.032;4.376;2023-07-20T07:32:07;102615.44;;;16.52;nan
70053;BME280;57398;52.032;4.376;2023-07-20T07:34:57;102603.06;;;16.34;nan
70053;BME280;57398;52.032;4.376;2023-07-20T07:40:38;102640.06;;;15.88;nan
70053;BME280;57398;52.032;4.376;2023-07-20T07:43:27;102605.00;;;15.82;nan
70053;BME280;57398;52.032;4.376;2023-07-20T07:46:16;102604.78;;;15.84;nan
70053;BME280;57398;52.032;4.376;2023-07-20T07:49:04;102594.16;;;15.79;nan
70053;BME280;57398;52.032;4.376;2023-07-20T07:51:52;102596.59;;;15.67;nan
70053;BME280;57398;52.032;4.376;2023-07-20T07:54:41;102599.00;;;15.68;nan
70053;BME280;57398;52.032;4.376;2023-07-20T07:57:29;102604.47;;;15.74;nan
70053;BME280;57398;52.032;4.376;2023-07-20T08:00:19;102603.78;;;15.85;nan
70053;BME280;57398;52.032;4.376;2023-07-20T08:03:08;102599.59;;;16.09;nan
70053;BME280;57398;52.032;4.376;2023-07-20T08:05:56;102590.09;;;16.40;nan
70053;BME280;57398;52.032;4.376;2023-07-20T08:08:45;102591.88;;;16.46;nan
70053;BME280;57398;52.032;4.376;2023-07-20T08:11:34;102592.66;;;16.71;nan
70053;BME280;57398;52.032;4.376;2023-07-20T08:14:22;102580.41;;;16.65;nan
70053;BME280;57398;52.032;4.376;2023-07-20T08:17:11;102583.31;;;16.82;nan
70053;BME280;57398;52.032;4.376;2023-07-20T08:20:00;102579.59;;;16.90;nan
70053;BME280;57398;52.032;4.376;2023-07-20T08:22:48;102570.72;;;16.66;nan
70053;BME280;57398;52.032;4.376;2023-07-20T08:25:36;102598.19;;;16.88;nan
70053;BME280;57398;52.032;4.376;2023-07-20T08:28:26;102575.50;;;16.94;nan
70053;BME280;57398;52.032;4.376;2023-07-20T08:31:16;102579.38;;;17.10;nan
70053;BME280;57398;52.032;4.376;2023-07-20T08:34:06;102565.06;;;16.87;nan
70053;BME280;57398;52.032;4.376;2023-07-20T08:37:06;102590.75;;;17.22;nan
70053;BME280;57398;52.032;4.376;2023-07-20T08:39:57;102574.25;;;17.33;nan
70053;BME280;57398;52.032;4.376;2023-07-20T08:42:45;102579.19;;;17.60;nan
70053;BME280;57398;52.032;4.376;2023-07-20T08:45:34;102568.50;;;17.73;nan
70053;BME280;57398;52.032;4.376;2023-07-20T08:51:13;102562.16;;;17.93;nan
70053;BME280;57398;52.032;4.376;2023-07-20T08:54:03;102564.22;;;17.91;nan
70053;BME280;57398;52.032;4.376;2023-07-20T08:56:51;102570.44;;;18.32;nan
70053;BME280;57398;52.032;4.376;2023-07-20T08:59:40;102559.50;;;18.35;nan
70053;BME280;57398;52.032;4.376;2023-07-20T09:02:29;102559.59;;;18.52;nan
70053;BME280;57398;52.032;4.376;2023-07-20T09:05:17;102538.84;;;17.85;nan
70053;BME280;57398;52.032;4.376;2023-07-20T09:08:08;102530.88;;;17.73;nan
70053;BME280;57398;52.032;4.376;2023-07-20T09:10:56;102524.50;;;17.80;nan
70053;BME280;57398;52.032;4.376;2023-07-20T09:13:45;102517.72;;;19.72;nan
70053;BME280;57398;52.032;4.376;2023-07-20T09:19:35;102405.59;;;22.03;nan
70053;BME280;57398;52.032;4.376;2023-07-20T09:22:29;102317.78;;;19.85;nan
70053;BME280;57398;52.032;4.376;2023-07-20T09:25:19;101359.63;;;19.86;nan
70053;BME280;57398;52.032;4.376;2023-07-20T09:28:08;101174.81;;;18.87;nan
70053;BME280;57398;52.032;4.376;2023-07-20T09:30:58;101027.72;;;18.86;nan
70053;BME280;57398;52.032;4.376;2023-07-20T09:36:38;101173.47;;;21.66;nan
70053;BME280;57398;52.032;4.376;2023-07-20T09:39:29;101225.47;;;20.24;nan
70053;BME280;57398;52.032;4.376;2023-07-20T09:42:19;101113.00;;;20.68;nan
70053;BME280;57398;52.032;4.376;2023-07-20T09:45:12;101250.59;;;21.73;nan
70053;BME280;57398;52.032;4.376;2023-07-20T09:48:03;101285.16;;;21.28;nan
70053;BME280;57398;52.032;4.376;2023-07-20T09:50:55;101342.28;;;22.45;nan
70053;BME280;57398;52.032;4.376;2023-07-20T09:53:44;101395.91;;;22.74;nan
70053;BME280;57398;52.032;4.376;2023-07-20T09:56:33;101397.59;;;22.46;nan
70053;BME280;57398;52.032;4.376;2023-07-20T09:59:24;101270.06;;;21.29;nan
70053;BME280;57398;52.032;4.376;2023-07-20T10:02:19;101232.41;;;21.18;nan
70053;BME280;57398;52.032;4.376;2023-07-20T10:05:08;101277.16;;;21.63;nan
70053;BME280;57398;52.032;4.376;2023-07-20T10:07:59;101336.28;;;22.15;nan
70053;BME280;57398;52.032;4.376;2023-07-20T10:10:50;101295.22;;;21.99;nan
70053;BME280;57398;52.032;4.376;2023-07-20T10:13:39;101348.91;;;20.82;nan
70053;BME280;57398;52.032;4.376;2023-07-20T10:16:32;101257.78;;;20.50;nan
70053;BME280;57398;52.032;4.376;2023-07-20T10:19:23;101239.66;;;20.34;nan
70053;BME280;57398;52.032;4.376;2023-07-20T10:22:14;101223.19;;;19.37;nan
70053;BME280;57398;52.032;4.376;2023-07-20T10:25:05;101167.06;;;19.47;nan
70053;BME280;57398;52.032;4.376;2023-07-20T10:27:56;101171.13;;;19.03;nan
70053;BME280;57398;52.032;4.376;2023-07-20T10:30:46;101133.28;;;18.79;nan
70053;BME280;57398;52.032;4.376;2023-07-20T10:33:36;101130.25;;;19.86;nan
70053;BME280;57398;52.032;4.376;2023-07-20T10:36:26;101132.09;;;21.32;nan
70053;BME280;57398;52.032;4.376;2023-07-20T10:42:14;101242.81;;;20.75;nan
70053;BME280;57398;52.032;4.376;2023-07-20T10:45:03;101263.28;;;20.59;nan
70053;BME280;57398;52.032;4.376;2023-07-20T10:53:33;101298.69;;;20.48;nan
70053;BME280;57398;52.032;4.376;2023-07-20T10:56:24;101296.16;;;20.22;nan
70053;BME280;57398;52.032;4.376;2023-07-20T10:59:18;101213.59;;;20.66;nan
70053;BME280;57398;52.032;4.376;2023-07-20T11:02:08;101328.09;;;20.26;nan
70053;BME280;57398;52.032;4.376;2023-07-20T11:04:56;101228.50;;;20.47;nan
70053;BME280;57398;52.032;4.376;2023-07-20T11:07:47;101241.19;;;20.79;nan
70053;BME280;57398;52.032;4.376;2023-07-20T11:10:35;101291.56;;;21.51;nan
70053;BME280;57398;52.032;4.376;2023-07-20T11:13:23;101285.75;;;21.20;nan
70053;BME280;57398;52.032;4.376;2023-07-20T11:16:16;101291.53;;;20.93;nan
70053;BME280;57398;52.032;4.376;2023-07-20T11:19:06;101297.47;;;21.09;nan
70053;BME280;57398;52.032;4.376;2023-07-20T11:21:55;101293.06;;;20.99;nan
70053;BME280;57398;52.032;4.376;2023-07-20T11:27:44;101278.81;;;20.16;nan
70053;BME280;57398;52.032;4.376;2023-07-20T11:30:33;101261.34;;;20.70;nan
70053;BME280;57398;52.032;4.376;2023-07-20T11:33:24;101374.50;;;20.87;nan
70053;BME280;57398;52.032;4.376;2023-07-20T11:36:12;101349.41;;;21.24;nan
70053;BME280;57398;52.032;4.376;2023-07-20T11:39:06;101355.06;;;21.46;nan
70053;BME280;57398;52.032;4.376;2023-07-20T11:41:57;101256.88;;;21.29;nan
70053;BME280;57398;52.032;4.376;2023-07-20T11:44:51;101294.97;;;21.23;nan
70053;BME280;57398;52.032;4.376;2023-07-20T11:47:40;101200.09;;;21.50;nan
70053;BME280;57398;52.032;4.376;2023-07-20T11:50:29;101211.81;;;22.06;nan
70053;BME280;57398;52.032;4.376;2023-07-20T11:53:18;101285.63;;;21.60;nan
70053;BME280;57398;52.032;4.376;2023-07-20T11:56:07;101284.41;;;21.23;nan
70053;BME280;57398;52.032;4.376;2023-07-20T11:58:57;101257.00;;;21.13;nan
70053;BME280;57398;52.032;4.376;2023-07-20T12:01:47;101238.81;;;21.12;nan
70053;BME280;57398;52.032;4.376;2023-07-20T12:04:35;101223.19;;;21.16;nan
70053;BME280;57398;52.032;4.376;2023-07-20T12:07:27;101264.00;;;22.01;nan
70053;BME280;57398;52.032;4.376;2023-07-20T12:10:15;101284.19;;;21.19;nan
70053;BME280;57398;52.032;4.376;2023-07-20T12:13:04;101198.31;;;22.27;nan
70053;BME280;57398;52.032;4.376;2023-07-20T12:15:54;101200.94;;;21.89;nan
70053;BME280;57398;52.032;4.376;2023-07-20T12:18:43;101218.59;;;21.50;nan
70053;BME280;57398;52.032;4.376;2023-07-20T12:21:34;101196.81;;;22.02;nan
70053;BME280;57398;52.032;4.376;2023-07-20T12:24:22;101248.19;;;22.71;nan
70053;BME280;57398;52.032;4.376;2023-07-20T12:27:13;101263.31;;;22.33;nan
70053;BME280;57398;52.032;4.376;2023-07-20T12:30:06;101281.88;;;21.90;nan
70053;BME280;57398;52.032;4.376;2023-07-20T12:32:56;101277.56;;;21.22;nan
70053;BME280;57398;52.032;4.376;2023-07-20T12:35:44;101256.03;;;21.58;nan
70053;BME280;57398;52.032;4.376;2023-07-20T12:38:32;101248.69;;;21.25;nan
70053;BME280;57398;52.032;4.376;2023-07-20T12:41:21;101282.16;;;21.88;nan
70053;BME280;57398;52.032;4.376;2023-07-20T12:44:09;101220.59;;;21.34;nan
70053;BME280;57398;52.032;4.376;2023-07-20T12:46:57;101146.44;;;21.50;nan
70053;BME280;57398;52.032;4.376;2023-07-20T12:49:47;101247.84;;;21.83;nan
70053;BME280;57398;52.032;4.376;2023-07-20T12:52:36;101224.41;;;20.99;nan
70053;BME280;57398;52.032;4.376;2023-07-20T12:55:25;101243.47;;;21.49;nan
70053;BME280;57398;52.032;4.376;2023-07-20T12:58:13;101209.75;;;20.83;nan
70053;BME280;57398;52.032;4.376;2023-07-20T13:01:01;101195.84;;;21.25;nan
70053;BME280;57398;52.032;4.376;2023-07-20T13:03:49;101198.50;;;20.72;nan
70053;BME280;57398;52.032;4.376;2023-07-20T13:06:41;101197.06;;;20.50;nan
70053;BME280;57398;52.032;4.376;2023-07-20T13:09:30;101188.84;;;21.64;nan
70053;BME280;57398;52.032;4.376;2023-07-20T13:12:18;101223.38;;;20.95;nan
70053;BME280;57398;52.032;4.376;2023-07-20T13:15:08;101248.34;;;20.79;nan
70053;BME280;57398;52.032;4.376;2023-07-20T13:17:56;101203.56;;;22.08;nan
70053;BME280;57398;52.032;4.376;2023-07-20T13:20:45;101238.28;;;22.25;nan
70053;BME280;57398;52.032;4.376;2023-07-20T13:23:35;101320.50;;;21.03;nan
70053;BME280;57398;52.032;4.376;2023-07-20T13:26:23;101255.66;;;20.53;nan
70053;BME280;57398;52.032;4.376;2023-07-20T13:29:12;101309.63;;;20.26;nan
70053;BME280;57398;52.032;4.376;2023-07-20T13:32:00;101350.75;;;20.82;nan
70053;BME280;57398;52.032;4.376;2023-07-20T13:34:49;101207.63;;;20.85;nan
70053;BME280;57398;52.032;4.376;2023-07-20T13:37:38;101261.25;;;21.15;nan
70053;BME280;57398;52.032;4.376;2023-07-20T13:40:28;101344.66;;;20.86;nan
70053;BME280;57398;52.032;4.376;2023-07-20T13:43:16;101316.75;;;21.39;nan
70053;BME280;57398;52.032;4.376;2023-07-20T13:46:05;101253.50;;;20.94;nan
70053;BME280;57398;52.032;4.376;2023-07-20T13:48:53;101204.09;;;20.95;nan
70053;BME280;57398;52.032;4.376;2023-07-20T13:51:42;101272.47;;;20.67;nan
70053;BME280;57398;52.032;4.376;2023-07-20T13:54:30;101203.66;;;21.84;nan
70053;BME280;57398;52.032;4.376;2023-07-20T13:57:20;101312.13;;;20.51;nan
70053;BME280;57398;52.032;4.376;2023-07-20T14:00:09;101255.53;;;20.28;nan
70053;BME280;57398;52.032;4.376;2023-07-20T14:02:58;101253.00;;;20.08;nan
70053;BME280;57398;52.032;4.376;2023-07-20T14:05:50;101208.75;;;20.79;nan
70053;BME280;57398;52.032;4.376;2023-07-20T14:11:29;101300.72;;;21.01;nan
70053;BME280;57398;52.032;4.376;2023-07-20T14:14:22;101180.91;;;21.64;nan
70053;BME280;57398;52.032;4.376;2023-07-20T14:17:10;101225.66;;;20.78;nan
70053;BME280;57398;52.032;4.376;2023-07-20T14:19:58;101215.56;;;20.45;nan
70053;BME280;57398;52.032;4.376;2023-07-20T14:22:46;101150.06;;;20.58;nan
70053;BME280;57398;52.032;4.376;2023-07-20T14:25:37;101249.03;;;20.11;nan
70053;BME280;57398;52.032;4.376;2023-07-20T14:28:25;101210.59;;;20.78;nan
70053;BME280;57398;52.032;4.376;2023-07-20T14:31:15;101214.47;;;21.15;nan
70053;BME280;57398;52.032;4.376;2023-07-20T14:34:05;101225.13;;;20.76;nan
70053;BME280;57398;52.032;4.376;2023-07-20T14:36:54;101224.69;;;20.24;nan
70053;BME280;57398;52.032;4.376;2023-07-20T14:39:43;101144.81;;;20.13;nan
70053;BME280;57398;52.032;4.376;2023-07-20T14:42:32;101147.25;;;20.09;nan
70053;BME280;57398;52.032;4.376;2023-07-20T14:45:20;101118.16;;;20.49;nan
70053;BME280;57398;52.032;4.376;2023-07-20T14:48:10;101205.69;;;20.22;nan
70053;BME280;57398;52.032;4.376;2023-07-20T14:50:58;101172.16;;;20.67;nan
70053;BME280;57398;52.032;4.376;2023-07-20T14:53:49;101156.19;;;20.48;nan
70053;BME280;57398;52.032;4.376;2023-07-20T14:56:38;101214.50;;;20.46;nan
70053;BME280;57398;52.032;4.376;2023-07-20T14:59:26;101150.41;;;20.41;nan
70053;BME280;57398;52.032;4.376;2023-07-20T15:02:14;101133.59;;;20.32;nan
70053;BME280;57398;52.032;4.376;2023-07-20T15:05:07;101138.78;;;20.13;nan
70053;BME280;57398;52.032;4.376;2023-07-20T15:07:55;101137.97;;;20.46;nan
70053;BME280;57398;52.032;4.376;2023-07-20T15:10:43;101207.72;;;21.04;nan
70053;BME280;57398;52.032;4.376;2023-07-20T15:13:32;101165.06;;;21.16;nan
70053;BME280;57398;52.032;4.376;2023-07-20T15:16:21;101192.59;;;21.33;nan
70053;BME280;57398;52.032;4.376;2023-07-20T15:19:09;101096.78;;;21.04;nan
70053;BME280;57398;52.032;4.376;2023-07-20T15:22:02;101121.63;;;20.79;nan
70053;BME280;57398;52.032;4.376;2023-07-20T15:24:51;101130.13;;;20.41;nan
70053;BME280;57398;52.032;4.376;2023-07-20T15:27:40;101054.25;;;20.52;nan
70053;BME280;57398;52.032;4.376;2023-07-20T15:30:34;101146.94;;;20.11;nan
70053;BME280;57398;52.032;4.376;2023-07-20T15:33:25;101140.16;;;20.05;nan
70053;BME280;57398;52.032;4.376;2023-07-20T15:36:13;101061.13;;;20.24;nan
70053;BME280;57398;52.032;4.376;2023-07-20T15:39:03;101105.84;;;20.74;nan
70053;BME280;57398;52.032;4.376;2023-07-20T15:41:52;101101.78;;;20.81;nan
70053;BME280;57398;52.032;4.376;2023-07-20T15:44:40;101051.88;;;21.04;nan
70053;BME280;57398;52.032;4.376;2023-07-20T15:47:29;101084.03;;;20.63;nan
70053;BME280;57398;52.032;4.376;2023-07-20T15:53:08;101071.28;;;20.94;nan
70053;BME280;57398;52.032;4.376;2023-07-20T15:55:58;101163.84;;;20.79;nan
70053;BME280;57398;52.032;4.376;2023-07-20T15:58:48;101113.63;;;20.55;nan
70053;BME280;57398;52.032;4.376;2023-07-20T16:01:36;101109.72;;;20.18;nan